createdAt,value
2023-08-24T00:01:33.046Z,4.83
2023-08-24T00:03:59.905Z,5.80
2023-08-24T00:06:26.473Z,4.40
2023-08-24T00:08:52.945Z,5.00
2023-08-24T00:11:19.507Z,4.63
2023-08-24T00:13:50.124Z,5.67
2023-08-24T00:16:17.881Z,5.13
2023-08-24T00:18:44.668Z,4.97
2023-08-24T00:21:11.282Z,4.87
2023-08-24T00:23:38.418Z,6.20
2023-08-24T00:26:05.127Z,5.50
2023-08-24T00:28:31.606Z,5.40
2023-08-24T00:30:58.189Z,5.10
2023-08-24T00:33:25.395Z,5.10
2023-08-24T00:35:51.877Z,4.67
2023-08-24T00:38:18.425Z,4.63
2023-08-24T00:40:44.992Z,4.93
2023-08-24T00:43:11.662Z,5.30
2023-08-24T00:45:38.311Z,5.27
2023-08-24T00:48:05.424Z,5.13
2023-08-24T00:50:32.467Z,5.40
2023-08-24T00:52:59.544Z,5.00
2023-08-24T00:55:26.223Z,4.90
2023-08-24T00:57:53.259Z,4.67
2023-08-24T01:00:19.929Z,5.20
2023-08-24T01:02:46.561Z,4.87
2023-08-24T01:05:13.397Z,4.73
2023-08-24T01:07:41.407Z,4.70
2023-08-24T01:10:10.375Z,4.83
2023-08-24T01:12:57.112Z,5.43
2023-08-24T01:15:38.519Z,4.63
2023-08-24T01:18:10.173Z,5.03
2023-08-24T01:20:38.213Z,4.90
2023-08-24T01:23:28.674Z,4.60
2023-08-24T01:26:15.147Z,5.40
2023-08-24T01:28:44.456Z,4.57
2023-08-24T01:31:11.373Z,5.37
2023-08-24T01:33:38.088Z,5.47
2023-08-24T01:36:04.802Z,4.40
2023-08-24T01:38:31.606Z,4.90
2023-08-24T01:41:13.005Z,5.10
2023-08-24T01:43:44.442Z,5.30
2023-08-24T01:46:16.097Z,5.47
2023-08-24T01:48:43.941Z,4.93
2023-08-24T01:51:11.481Z,4.97
2023-08-24T01:53:40.538Z,4.80
2023-08-24T01:56:14.523Z,4.27
2023-08-24T01:58:41.112Z,5.57
2023-08-24T02:01:09.212Z,4.53
2023-08-24T02:03:36.070Z,4.63
2023-08-24T02:06:02.873Z,5.23
2023-08-24T02:08:29.718Z,4.43
2023-08-24T02:10:56.209Z,5.60
2023-08-24T02:13:22.775Z,4.93
2023-08-24T02:15:49.335Z,4.97
2023-08-24T02:18:15.845Z,4.97
2023-08-24T02:20:42.365Z,5.10
2023-08-24T02:23:08.923Z,5.00
2023-08-24T02:25:35.393Z,5.17
2023-08-24T02:28:01.900Z,4.60
2023-08-24T02:30:28.418Z,4.57
2023-08-24T02:32:55.014Z,4.77
2023-08-24T02:35:21.639Z,4.90
2023-08-24T02:37:48.477Z,5.00
2023-08-24T02:40:15.473Z,4.73
2023-08-24T02:42:42.031Z,4.57
2023-08-24T02:45:08.832Z,4.83
2023-08-24T02:47:35.314Z,4.37
2023-08-24T02:50:01.819Z,4.20
2023-08-24T02:52:28.381Z,4.70
2023-08-24T02:54:54.855Z,4.67
2023-08-24T02:57:21.335Z,4.57
2023-08-24T02:59:47.915Z,4.60
2023-08-24T03:02:14.517Z,4.20
2023-08-24T03:04:41.253Z,4.27
2023-08-24T03:07:09.280Z,4.67
2023-08-24T03:09:36.572Z,4.20
2023-08-24T03:12:03.973Z,3.93
2023-08-24T03:14:30.466Z,4.80
2023-08-24T03:16:56.945Z,5.07
2023-08-24T03:19:23.432Z,4.97
2023-08-24T03:21:49.897Z,4.60
2023-08-24T03:24:16.433Z,4.93
2023-08-24T03:26:42.920Z,4.33
2023-08-24T03:29:09.390Z,4.43
2023-08-24T03:31:35.966Z,4.67
2023-08-24T03:34:04.718Z,4.33
2023-08-24T03:36:31.327Z,4.73
2023-08-24T03:38:57.766Z,4.73
2023-08-24T03:41:24.232Z,4.73
2023-08-24T03:43:50.906Z,4.43
2023-08-24T03:46:17.506Z,4.10
2023-08-24T03:48:44.101Z,4.77
2023-08-24T03:51:10.601Z,4.53
2023-08-24T03:53:37.089Z,5.07
2023-08-24T03:56:03.729Z,4.40
2023-08-24T03:58:30.448Z,5.57
2023-08-24T04:00:56.980Z,4.53
2023-08-24T04:03:23.731Z,4.87
2023-08-24T04:05:50.320Z,4.60
2023-08-24T04:08:17.310Z,4.50
2023-08-24T04:10:43.900Z,4.70
2023-08-24T04:13:10.423Z,4.40
2023-08-24T04:15:36.968Z,4.90
2023-08-24T04:18:03.755Z,5.00
2023-08-24T04:20:30.231Z,4.90
2023-08-24T04:22:57.582Z,4.63
2023-08-24T04:25:24.581Z,4.87
2023-08-24T04:27:51.313Z,4.50
2023-08-24T04:30:18.015Z,5.43
2023-08-24T04:32:44.621Z,5.00
2023-08-24T04:35:11.456Z,4.20
2023-08-24T04:37:39.269Z,4.97
2023-08-24T04:40:12.198Z,5.00
2023-08-24T04:42:38.692Z,5.10
2023-08-24T04:45:05.532Z,5.47
2023-08-24T04:47:32.102Z,4.93
2023-08-24T04:49:58.602Z,5.93
2023-08-24T04:52:25.292Z,5.30
2023-08-24T04:54:51.741Z,5.37
2023-08-24T04:57:19.150Z,4.27
2023-08-24T04:59:45.651Z,4.80
2023-08-24T05:02:12.170Z,5.13
2023-08-24T05:04:38.721Z,5.77
2023-08-24T05:07:05.302Z,4.33
2023-08-24T05:09:31.808Z,4.73
2023-08-24T05:11:58.386Z,5.10
2023-08-24T05:14:24.943Z,4.60
2023-08-24T05:16:51.457Z,5.77
2023-08-24T05:19:17.963Z,5.87
2023-08-24T05:21:44.445Z,6.10
2023-08-24T05:24:10.956Z,5.67
2023-08-24T05:26:37.463Z,5.97
2023-08-24T05:29:04.322Z,5.60
2023-08-24T05:31:30.892Z,5.70
2023-08-24T05:33:57.448Z,5.87
2023-08-24T05:36:24.059Z,6.00
2023-08-24T05:39:04.932Z,6.57
2023-08-24T05:41:32.991Z,5.20
2023-08-24T05:43:59.591Z,5.30
2023-08-24T05:46:26.128Z,5.67
2023-08-24T05:48:52.718Z,6.37
2023-08-24T05:51:19.233Z,5.73
2023-08-24T05:53:45.788Z,6.10
2023-08-24T05:56:12.436Z,6.00
2023-08-24T05:58:38.894Z,5.80
2023-08-24T06:01:05.458Z,6.30
2023-08-24T06:03:32.026Z,6.20
2023-08-24T06:06:04.328Z,6.37
2023-08-24T06:08:31.430Z,5.47
2023-08-24T06:10:58.966Z,5.03
2023-08-24T06:13:25.778Z,6.23
2023-08-24T06:15:52.518Z,5.27
2023-08-24T06:18:19.213Z,5.63
2023-08-24T06:20:46.922Z,5.40
2023-08-24T06:23:16.241Z,5.33
2023-08-24T06:25:43.068Z,6.07
2023-08-24T06:28:10.379Z,5.93
2023-08-24T06:30:40.996Z,5.50
2023-08-24T06:33:08.271Z,5.90
2023-08-24T06:35:35.289Z,5.70
2023-08-24T06:38:03.126Z,5.73
2023-08-24T06:40:30.100Z,5.40
2023-08-24T06:42:57.492Z,5.80
2023-08-24T06:45:24.186Z,5.77
2023-08-24T06:47:51.061Z,5.43
2023-08-24T06:50:18.083Z,6.33
2023-08-24T06:52:44.524Z,5.30
2023-08-24T06:55:11.572Z,5.90
2023-08-24T06:57:38.263Z,5.00
2023-08-24T07:00:11.328Z,4.43
2023-08-24T07:02:38.182Z,5.20
2023-08-24T07:05:09.756Z,4.77
2023-08-24T07:07:36.721Z,4.50
2023-08-24T07:10:04.443Z,4.70
2023-08-24T07:12:31.176Z,4.47
2023-08-24T07:14:57.674Z,4.37
2023-08-24T07:17:24.215Z,4.80
2023-08-24T07:19:50.879Z,4.33
2023-08-24T07:22:21.003Z,4.40
2023-08-24T07:24:47.506Z,4.67
2023-08-24T07:27:14.276Z,4.33
2023-08-24T07:29:41.046Z,4.40
2023-08-24T07:32:07.678Z,4.10
2023-08-24T07:34:34.324Z,4.10
2023-08-24T07:37:00.816Z,4.10
2023-08-24T07:39:27.344Z,4.10
2023-08-24T07:41:53.927Z,4.07
2023-08-24T07:44:20.572Z,4.20
2023-08-24T07:46:48.895Z,4.57
2023-08-24T07:49:15.431Z,5.10
2023-08-24T07:51:43.934Z,5.20
2023-08-24T07:54:10.519Z,4.23
2023-08-24T07:56:37.564Z,4.10
2023-08-24T07:59:04.139Z,3.97
2023-08-24T08:01:31.864Z,4.67
2023-08-24T08:03:58.669Z,4.10
2023-08-24T08:06:26.350Z,4.83
2023-08-24T08:08:53.118Z,4.17
2023-08-24T08:11:22.469Z,3.90
2023-08-24T08:13:49.523Z,3.90
2023-08-24T08:16:16.171Z,4.60
2023-08-24T08:18:42.686Z,3.80
2023-08-24T08:21:21.908Z,4.10
2023-08-24T08:23:50.644Z,4.03
2023-08-24T08:26:17.465Z,9.90
2023-08-24T08:28:44.152Z,5.57
2023-08-24T08:31:10.813Z,3.70
2023-08-24T08:33:37.398Z,4.07
2023-08-24T08:36:04.608Z,4.23
2023-08-24T08:38:31.218Z,3.87
2023-08-24T08:41:04.073Z,5.00
2023-08-24T08:43:31.524Z,3.80
2023-08-24T08:46:00.496Z,3.20
2023-08-24T08:48:28.518Z,3.60
2023-08-24T08:50:56.865Z,5.30
2023-08-24T08:53:24.560Z,3.10
2023-08-24T08:55:56.239Z,3.23
2023-08-24T08:58:23.830Z,3.43
2023-08-24T09:00:50.964Z,4.43
2023-08-24T09:03:20.035Z,3.30
2023-08-24T09:05:50.261Z,3.63
2023-08-24T09:08:19.986Z,7.10
2023-08-24T09:10:46.650Z,3.80
2023-08-24T09:13:13.457Z,3.73
2023-08-24T09:15:40.380Z,3.20
2023-08-24T09:18:07.115Z,4.00
2023-08-24T09:20:35.432Z,3.37
2023-08-24T09:23:02.538Z,3.13
2023-08-24T09:25:29.167Z,3.83
2023-08-24T09:28:09.114Z,3.30
2023-08-24T09:30:36.908Z,3.90
2023-08-24T09:33:04.546Z,3.40
2023-08-24T09:35:36.640Z,3.53
2023-08-24T09:38:18.467Z,3.80
2023-08-24T09:40:52.155Z,4.07
2023-08-24T09:43:18.756Z,3.07
2023-08-24T09:45:58.835Z,3.60
2023-08-24T09:48:28.592Z,6.73
2023-08-24T09:50:57.893Z,3.90
2023-08-24T09:53:24.946Z,3.57
2023-08-24T09:55:58.451Z,3.23
2023-08-24T09:58:25.689Z,3.37
2023-08-24T10:00:52.965Z,3.17
2023-08-24T10:03:23.960Z,3.13
2023-08-24T10:05:58.937Z,3.40
2023-08-24T10:08:42.877Z,3.53
2023-08-24T10:11:16.172Z,3.10
2023-08-24T10:14:16.697Z,4.47
2023-08-24T10:16:45.553Z,4.30
2023-08-24T10:19:16.970Z,4.90
2023-08-24T10:21:43.994Z,4.33
2023-08-24T10:24:12.422Z,3.60
2023-08-24T10:26:40.882Z,3.53
2023-08-24T10:29:08.398Z,3.00
2023-08-24T10:31:36.228Z,2.80
2023-08-24T10:34:03.904Z,3.63
2023-08-24T10:36:30.999Z,3.70
2023-08-24T10:39:00.405Z,3.20
2023-08-24T10:41:30.629Z,3.87
2023-08-24T10:44:12.537Z,3.03
2023-08-24T10:46:39.749Z,3.37
2023-08-24T10:49:06.308Z,3.43
2023-08-24T10:51:43.739Z,5.43
2023-08-24T10:54:11.955Z,3.57
2023-08-24T10:56:40.349Z,3.60
2023-08-24T10:59:18.050Z,3.90
2023-08-24T11:01:55.375Z,4.13
2023-08-24T11:04:22.021Z,3.33
2023-08-24T11:06:54.126Z,3.10
2023-08-24T11:09:21.091Z,3.17
2023-08-24T11:11:58.858Z,3.00
2023-08-24T11:14:28.367Z,3.50
2023-08-24T11:17:00.356Z,4.00
2023-08-24T11:19:27.448Z,3.90
2023-08-24T11:21:54.593Z,3.27
2023-08-24T11:24:21.151Z,3.60
2023-08-24T11:26:49.453Z,3.37
2023-08-24T11:29:19.869Z,3.33
2023-08-24T11:31:46.553Z,3.10
2023-08-24T11:34:16.568Z,3.63
2023-08-24T11:36:50.057Z,4.77
2023-08-24T11:39:21.512Z,4.37
2023-08-24T11:42:04.806Z,3.63
2023-08-24T11:44:47.334Z,3.30
2023-08-24T11:47:14.113Z,3.63
2023-08-24T11:49:40.996Z,4.03
2023-08-24T11:52:09.216Z,3.23
2023-08-24T11:54:39.350Z,3.80
2023-08-24T11:57:12.599Z,3.70
2023-08-24T11:59:41.125Z,3.73
2023-08-24T12:02:10.814Z,2.97
2023-08-24T12:04:43.618Z,3.50
2023-08-24T12:07:14.270Z,2.97
2023-08-24T12:09:41.881Z,3.80
2023-08-24T12:12:14.435Z,3.27
2023-08-24T12:14:42.373Z,3.70
2023-08-24T12:17:10.340Z,3.90
2023-08-24T12:19:36.820Z,3.10
2023-08-24T12:22:03.818Z,2.80
2023-08-24T12:24:30.306Z,3.10
2023-08-24T12:27:00.990Z,3.80
2023-08-24T12:29:27.636Z,4.57
2023-08-24T12:31:59.252Z,3.77
2023-08-24T12:34:25.745Z,3.70
2023-08-24T12:36:56.004Z,3.53
2023-08-24T12:39:22.849Z,3.27
2023-08-24T12:41:49.348Z,3.40
2023-08-24T12:44:16.297Z,3.67
2023-08-24T12:46:42.983Z,3.40
2023-08-24T12:49:09.515Z,3.80
2023-08-24T12:51:36.058Z,3.90
2023-08-24T12:54:02.556Z,3.50
2023-08-24T12:56:29.106Z,3.40
2023-08-24T12:58:56.285Z,3.60
2023-08-24T13:01:22.992Z,3.60
2023-08-24T13:03:49.666Z,3.83
2023-08-24T13:06:24.237Z,3.93
2023-08-24T13:08:53.692Z,4.10
2023-08-24T13:11:20.509Z,4.10
2023-08-24T13:13:47.185Z,3.93
2023-08-24T13:16:13.887Z,3.80
2023-08-24T13:18:40.580Z,4.13
2023-08-24T13:21:07.282Z,4.60
2023-08-24T13:23:34.899Z,3.90
2023-08-24T13:26:02.019Z,3.63
2023-08-24T13:28:30.731Z,4.23
2023-08-24T13:30:57.476Z,3.93
2023-08-24T13:33:24.277Z,3.57
2023-08-24T13:35:50.756Z,3.60
2023-08-24T13:38:17.355Z,3.80
2023-08-24T13:40:44.341Z,4.00
2023-08-24T13:43:12.039Z,4.00
2023-08-24T13:45:38.581Z,3.73
2023-08-24T13:48:05.542Z,3.57
2023-08-24T13:50:32.091Z,3.63
2023-08-24T13:53:13.525Z,3.67
2023-08-24T13:55:41.864Z,4.30
2023-08-24T13:58:08.378Z,3.93
2023-08-24T14:00:35.397Z,4.00
2023-08-24T14:03:01.994Z,4.10
2023-08-24T14:05:28.531Z,4.63
2023-08-24T14:07:55.257Z,4.00
2023-08-24T14:10:21.877Z,4.40
2023-08-24T14:12:48.431Z,5.13
2023-08-24T14:15:15.163Z,4.40
2023-08-24T14:17:41.734Z,4.60
2023-08-24T14:20:10.243Z,4.67
2023-08-24T14:22:36.804Z,4.30
2023-08-24T14:25:03.411Z,4.77
2023-08-24T14:27:29.909Z,4.70
2023-08-24T14:29:56.379Z,4.27
2023-08-24T14:32:24.456Z,4.47
2023-08-24T14:34:51.026Z,3.80
2023-08-24T14:37:17.986Z,4.23
2023-08-24T14:39:44.496Z,4.33
2023-08-24T14:42:11.251Z,4.20
2023-08-24T14:44:37.757Z,4.10
2023-08-24T14:47:04.412Z,4.17
2023-08-24T14:49:31.209Z,3.97
2023-08-24T14:51:57.932Z,4.80
2023-08-24T14:54:24.450Z,3.80
2023-08-24T14:56:51.049Z,3.33
2023-08-24T14:59:18.311Z,4.03
2023-08-24T15:01:46.104Z,3.70
2023-08-24T15:04:12.661Z,3.87
2023-08-24T15:06:39.252Z,3.90
2023-08-24T15:09:06.023Z,4.27
2023-08-24T15:11:32.499Z,4.20
2023-08-24T15:13:59.065Z,4.17
2023-08-24T15:16:25.548Z,3.40
2023-08-24T15:18:52.108Z,3.43
2023-08-24T15:21:18.686Z,3.47
2023-08-24T15:23:45.242Z,4.50
2023-08-24T15:26:11.815Z,3.30
2023-08-24T15:29:11.013Z,3.17
2023-08-24T15:31:37.725Z,3.50
2023-08-24T15:34:04.921Z,4.40
2023-08-24T15:36:54.769Z,4.00
2023-08-24T15:39:21.239Z,3.80
2023-08-24T15:41:47.882Z,3.43
2023-08-24T15:44:14.364Z,3.33
2023-08-24T15:46:40.855Z,3.63
2023-08-24T15:49:07.403Z,3.27
2023-08-24T15:51:33.898Z,3.87
2023-08-24T15:54:01.588Z,3.20
2023-08-24T15:56:28.258Z,3.47
2023-08-24T15:58:54.748Z,3.40
2023-08-24T16:01:21.301Z,3.40
2023-08-24T16:03:47.926Z,3.43
2023-08-24T16:06:14.533Z,3.27
2023-08-24T16:08:41.046Z,3.43
2023-08-24T16:11:07.520Z,3.73
2023-08-24T16:13:34.022Z,3.30
2023-08-24T16:16:00.553Z,4.47
2023-08-24T16:18:27.138Z,3.50
2023-08-24T16:20:54.027Z,2.67
2023-08-24T16:23:21.193Z,3.17
2023-08-24T16:25:48.021Z,3.00
2023-08-24T16:28:15.114Z,3.17
2023-08-24T16:30:41.688Z,3.07
2023-08-24T16:33:08.330Z,3.10
2023-08-24T16:35:34.838Z,3.40
2023-08-24T16:38:01.345Z,3.13
2023-08-24T16:40:27.847Z,3.23
2023-08-24T16:42:54.320Z,2.90
2023-08-24T16:45:23.088Z,3.30
2023-08-24T16:48:06.397Z,3.60
2023-08-24T16:50:33.003Z,2.97
2023-08-24T16:52:59.452Z,2.80
2023-08-24T16:55:26.014Z,3.00
2023-08-24T16:57:53.287Z,2.90
2023-08-24T17:00:20.231Z,3.00
2023-08-24T17:02:46.816Z,3.10
2023-08-24T17:05:13.489Z,3.07
2023-08-24T17:07:41.102Z,3.10
2023-08-24T17:10:08.851Z,2.83
2023-08-24T17:12:36.378Z,3.47
2023-08-24T17:15:04.175Z,3.83
2023-08-24T17:17:30.840Z,2.77
2023-08-24T17:19:57.518Z,2.33
2023-08-24T17:22:24.131Z,3.00
2023-08-24T17:24:50.684Z,2.97
2023-08-24T17:27:17.307Z,3.13
2023-08-24T17:29:43.859Z,2.57
2023-08-24T17:32:10.359Z,2.77
2023-08-24T17:34:36.919Z,2.97
2023-08-24T17:37:03.455Z,2.73
2023-08-24T17:39:31.097Z,3.43
2023-08-24T17:41:57.640Z,3.40
2023-08-24T17:44:24.202Z,3.00
2023-08-24T17:46:50.722Z,2.73
2023-08-24T17:49:17.282Z,3.07
2023-08-24T17:51:43.990Z,2.80
2023-08-24T17:54:10.529Z,3.17
2023-08-24T17:56:37.036Z,3.10
2023-08-24T17:59:03.513Z,2.90
2023-08-24T18:01:30.185Z,2.60
2023-08-24T18:03:57.052Z,3.60
2023-08-24T18:06:29.394Z,2.87
2023-08-24T18:08:55.914Z,2.60
2023-08-24T18:11:22.511Z,3.27
2023-08-24T18:13:49.375Z,3.20
2023-08-24T18:16:16.278Z,2.80
2023-08-24T18:18:44.096Z,3.10
2023-08-24T18:21:10.825Z,3.20
2023-08-24T18:23:37.337Z,2.93
2023-08-24T18:26:05.134Z,3.53
2023-08-24T18:28:31.675Z,3.20
2023-08-24T18:30:58.831Z,3.00
2023-08-24T18:33:26.094Z,2.60
2023-08-24T18:35:54.045Z,2.60
2023-08-24T18:38:21.218Z,2.30
2023-08-24T18:40:51.978Z,2.83
2023-08-24T18:43:18.972Z,3.10
2023-08-24T18:45:46.591Z,2.90
2023-08-24T18:48:13.318Z,3.40
2023-08-24T18:50:39.970Z,2.83
2023-08-24T18:53:06.442Z,3.57
2023-08-24T18:55:32.995Z,2.77
2023-08-24T18:57:59.516Z,2.90
2023-08-24T19:00:26.022Z,3.47
2023-08-24T19:02:52.512Z,3.43
2023-08-24T19:05:19.078Z,3.80
2023-08-24T19:07:46.088Z,2.80
2023-08-24T19:10:12.678Z,3.53
2023-08-24T19:12:40.462Z,3.03
2023-08-24T19:15:07.596Z,2.70
2023-08-24T19:17:34.086Z,2.90
2023-08-24T19:20:00.712Z,2.80
2023-08-24T19:22:27.191Z,3.57
2023-08-24T19:24:53.655Z,3.00
2023-08-24T19:27:20.936Z,2.97
2023-08-24T19:29:47.512Z,3.30
2023-08-24T19:32:14.008Z,3.47
2023-08-24T19:34:40.540Z,3.13
2023-08-24T19:37:07.056Z,3.30
2023-08-24T19:39:33.536Z,2.63
2023-08-24T19:42:00.515Z,3.23
2023-08-24T19:44:27.422Z,3.33
2023-08-24T19:47:01.121Z,3.30
2023-08-24T19:49:31.641Z,3.10
2023-08-24T19:51:58.145Z,3.00
2023-08-24T19:54:24.855Z,2.70
2023-08-24T19:56:51.359Z,3.03
2023-08-24T19:59:17.935Z,2.60
2023-08-24T20:01:44.472Z,3.37
2023-08-24T20:04:11.236Z,3.40
2023-08-24T20:06:38.141Z,3.07
2023-08-24T20:09:07.042Z,3.20
2023-08-24T20:11:33.537Z,3.20
2023-08-24T20:14:00.757Z,3.53
2023-08-24T20:16:27.503Z,3.00
2023-08-24T20:18:54.832Z,3.07
2023-08-24T20:21:22.711Z,3.47
2023-08-24T20:23:49.485Z,3.30
2023-08-24T20:26:17.615Z,2.80
2023-08-24T20:28:44.264Z,2.87
2023-08-24T20:31:11.122Z,2.47
2023-08-24T20:33:37.657Z,3.37
2023-08-24T20:36:05.485Z,3.00
2023-08-24T20:38:32.587Z,3.43
2023-08-24T20:41:04.012Z,3.10
2023-08-24T20:43:31.550Z,3.30
2023-08-24T20:45:58.171Z,3.07
2023-08-24T20:48:24.684Z,3.30
2023-08-24T20:50:55.968Z,3.00
2023-08-24T20:53:22.475Z,3.27
2023-08-24T20:55:49.099Z,3.00
2023-08-24T20:58:16.876Z,2.90
2023-08-24T21:00:44.605Z,2.83
2023-08-24T21:03:11.306Z,2.93
2023-08-24T21:05:37.846Z,2.97
2023-08-24T21:08:05.096Z,2.70
2023-08-24T21:10:31.672Z,3.20
2023-08-24T21:12:58.205Z,2.97
2023-08-24T21:15:24.729Z,3.33
2023-08-24T21:17:51.532Z,3.20
2023-08-24T21:20:20.509Z,2.60
2023-08-24T21:22:51.180Z,2.90
2023-08-24T21:25:17.708Z,4.47
2023-08-24T21:27:44.237Z,6.33
2023-08-24T21:30:11.130Z,2.73
2023-08-24T21:32:37.681Z,3.50
2023-08-24T21:35:04.876Z,2.93
2023-08-24T21:37:33.221Z,3.13
2023-08-24T21:40:00.697Z,3.10
2023-08-24T21:42:27.180Z,2.97
2023-08-24T21:44:53.645Z,3.07
2023-08-24T21:47:20.108Z,3.10
2023-08-24T21:49:46.684Z,2.90
2023-08-24T21:52:13.204Z,3.00
2023-08-24T21:54:39.639Z,3.40
2023-08-24T21:57:06.247Z,3.27
2023-08-24T21:59:32.827Z,3.07
2023-08-24T22:01:59.365Z,4.30
2023-08-24T22:04:25.965Z,3.07
2023-08-24T22:06:52.490Z,3.13
2023-08-24T22:09:19.031Z,4.00
2023-08-24T22:11:45.577Z,2.60
2023-08-24T22:14:12.122Z,3.07
2023-08-24T22:16:38.704Z,3.83
2023-08-24T22:19:10.625Z,3.50
2023-08-24T22:21:40.680Z,3.50
2023-08-24T22:24:07.321Z,4.70
2023-08-24T22:26:33.869Z,3.70
2023-08-24T22:29:00.416Z,4.23
2023-08-24T22:31:26.985Z,3.70
2023-08-24T22:33:53.515Z,3.77
2023-08-24T22:36:19.983Z,3.53
2023-08-24T22:38:46.538Z,3.27
2023-08-24T22:41:12.979Z,3.37
2023-08-24T22:43:39.481Z,3.67
2023-08-24T22:46:06.049Z,3.33
2023-08-24T22:48:32.586Z,3.60
2023-08-24T22:50:59.094Z,6.50
2023-08-24T22:53:25.561Z,4.10
2023-08-24T22:55:52.092Z,4.20
2023-08-24T22:58:18.646Z,3.60
2023-08-24T23:00:45.114Z,3.37
2023-08-24T23:03:12.742Z,4.10
2023-08-24T23:05:40.265Z,3.57
2023-08-24T23:08:08.142Z,3.10
2023-08-24T23:10:34.796Z,3.50
2023-08-24T23:13:01.438Z,3.40
2023-08-24T23:15:31.012Z,3.70
2023-08-24T23:17:57.837Z,3.30
2023-08-24T23:20:24.513Z,3.27
2023-08-24T23:22:51.073Z,3.30
2023-08-24T23:25:17.686Z,3.50
2023-08-24T23:27:44.282Z,3.50
2023-08-24T23:30:11.402Z,3.10
2023-08-24T23:32:40.152Z,3.10
2023-08-24T23:35:07.093Z,3.50
2023-08-24T23:37:33.575Z,3.53
2023-08-24T23:40:00.035Z,3.60
2023-08-24T23:42:28.647Z,3.57
2023-08-24T23:44:55.652Z,4.07
2023-08-24T23:47:22.360Z,3.20
2023-08-24T23:49:48.856Z,3.07
2023-08-24T23:52:15.325Z,4.13
2023-08-24T23:54:41.937Z,3.53
2023-08-24T23:57:08.379Z,3.40
2023-08-24T23:59:34.840Z,3.77
